sensor_id;sensor_type;location;lat;lon;timestamp;temperature;humidity
44647;DHT22;56315;-33.902;151.160;2023-01-20T00:01:15;21.90;99.90
44647;DHT22;56315;-33.902;151.160;2023-01-20T00:03:43;21.90;99.90
44647;DHT22;56315;-33.902;151.160;2023-01-20T00:06:10;22.10;99.90
44647;DHT22;56315;-33.902;151.160;2023-01-20T00:08:37;22.10;99.90
44647;DHT22;56315;-33.902;151.160;2023-01-20T00:11:05;22.20;99.90
44647;DHT22;56315;-33.902;151.160;2023-01-20T00:13:33;22.30;99.90
44647;DHT22;56315;-33.902;151.160;2023-01-20T00:16:02;22.60;99.90
44647;DHT22;56315;-33.902;151.160;2023-01-20T00:18:29;22.80;99.90
44647;DHT22;56315;-33.902;151.160;2023-01-20T00:21:00;22.80;99.90
44647;DHT22;56315;-33.902;151.160;2023-01-20T00:23:28;22.80;99.90
44647;DHT22;56315;-33.902;151.160;2023-01-20T00:25:54;22.80;99.90
44647;DHT22;56315;-33.902;151.160;2023-01-20T00:28:21;22.80;99.90
44647;DHT22;56315;-33.902;151.160;2023-01-20T00:30:48;22.60;99.90
44647;DHT22;56315;-33.902;151.160;2023-01-20T00:33:15;22.60;99.90
44647;DHT22;56315;-33.902;151.160;2023-01-20T00:35:41;22.80;99.90
44647;DHT22;56315;-33.902;151.160;2023-01-20T00:38:08;22.90;99.90
44647;DHT22;56315;-33.902;151.160;2023-01-20T00:40:35;23.00;99.90
44647;DHT22;56315;-33.902;151.160;2023-01-20T00:43:02;23.20;99.90
44647;DHT22;56315;-33.902;151.160;2023-01-20T00:45:28;23.30;99.90
44647;DHT22;56315;-33.902;151.160;2023-01-20T00:47:55;23.30;99.90
44647;DHT22;56315;-33.902;151.160;2023-01-20T00:50:22;23.40;99.90
44647;DHT22;56315;-33.902;151.160;2023-01-20T00:52:49;23.40;99.90
44647;DHT22;56315;-33.902;151.160;2023-01-20T00:55:15;23.40;99.90
44647;DHT22;56315;-33.902;151.160;2023-01-20T00:57:42;23.60;99.90
44647;DHT22;56315;-33.902;151.160;2023-01-20T01:00:09;23.60;99.90
44647;DHT22;56315;-33.902;151.160;2023-01-20T01:02:37;23.50;99.90
44647;DHT22;56315;-33.902;151.160;2023-01-20T01:05:04;23.40;99.90
44647;DHT22;56315;-33.902;151.160;2023-01-20T01:07:31;23.20;99.90
44647;DHT22;56315;-33.902;151.160;2023-01-20T01:09:58;22.90;99.90
44647;DHT22;56315;-33.902;151.160;2023-01-20T01:12:24;22.80;99.90
44647;DHT22;56315;-33.902;151.160;2023-01-20T01:14:51;22.50;99.90
44647;DHT22;56315;-33.902;151.160;2023-01-20T01:17:17;22.20;99.90
44647;DHT22;56315;-33.902;151.160;2023-01-20T01:19:44;22.10;99.90
44647;DHT22;56315;-33.902;151.160;2023-01-20T01:22:11;22.10;99.90
44647;DHT22;56315;-33.902;151.160;2023-01-20T01:24:37;22.10;99.90
44647;DHT22;56315;-33.902;151.160;2023-01-20T01:27:04;22.30;99.90
44647;DHT22;56315;-33.902;151.160;2023-01-20T01:29:30;22.50;99.90
44647;DHT22;56315;-33.902;151.160;2023-01-20T01:31:57;22.70;99.90
44647;DHT22;56315;-33.902;151.160;2023-01-20T01:34:23;23.00;99.90
44647;DHT22;56315;-33.902;151.160;2023-01-20T01:36:50;23.00;99.90
44647;DHT22;56315;-33.902;151.160;2023-01-20T01:39:17;23.10;99.90
44647;DHT22;56315;-33.902;151.160;2023-01-20T01:41:44;23.20;99.90
44647;DHT22;56315;-33.902;151.160;2023-01-20T01:44:11;23.30;99.90
44647;DHT22;56315;-33.902;151.160;2023-01-20T01:46:38;23.20;99.90
44647;DHT22;56315;-33.902;151.160;2023-01-20T01:49:08;23.20;99.90
44647;DHT22;56315;-33.902;151.160;2023-01-20T01:51:38;23.10;99.90
44647;DHT22;56315;-33.902;151.160;2023-01-20T01:54:09;23.00;99.90
44647;DHT22;56315;-33.902;151.160;2023-01-20T01:56:37;22.80;99.90
44647;DHT22;56315;-33.902;151.160;2023-01-20T01:59:06;22.70;99.90
44647;DHT22;56315;-33.902;151.160;2023-01-20T02:01:33;22.60;99.90
44647;DHT22;56315;-33.902;151.160;2023-01-20T02:06:29;22.60;99.90
44647;DHT22;56315;-33.902;151.160;2023-01-20T02:08:58;22.50;99.90
44647;DHT22;56315;-33.902;151.160;2023-01-20T02:11:26;22.40;99.90
44647;DHT22;56315;-33.902;151.160;2023-01-20T02:13:53;22.40;99.90
44647;DHT22;56315;-33.902;151.160;2023-01-20T02:16:55;22.30;99.90
44647;DHT22;56315;-33.902;151.160;2023-01-20T02:29:47;22.50;99.90
44647;DHT22;56315;-33.902;151.160;2023-01-20T02:37:25;22.60;99.90
44647;DHT22;56315;-33.902;151.160;2023-01-20T02:45:23;22.90;99.90
44647;DHT22;56315;-33.902;151.160;2023-01-20T02:48:00;23.10;99.90
44647;DHT22;56315;-33.902;151.160;2023-01-20T02:50:39;23.20;99.90
44647;DHT22;56315;-33.902;151.160;2023-01-20T02:53:06;23.30;99.90
44647;DHT22;56315;-33.902;151.160;2023-01-20T02:55:35;23.40;99.90
44647;DHT22;56315;-33.902;151.160;2023-01-20T02:58:06;23.50;99.90
44647;DHT22;56315;-33.902;151.160;2023-01-20T03:00:36;23.60;99.90
44647;DHT22;56315;-33.902;151.160;2023-01-20T03:03:10;23.70;99.90
44647;DHT22;56315;-33.902;151.160;2023-01-20T03:05:39;23.70;99.90
44647;DHT22;56315;-33.902;151.160;2023-01-20T03:08:06;24.00;99.90
44647;DHT22;56315;-33.902;151.160;2023-01-20T03:10:37;24.20;99.90
44647;DHT22;56315;-33.902;151.160;2023-01-20T03:15:46;24.90;99.90
44647;DHT22;56315;-33.902;151.160;2023-01-20T03:18:16;25.20;99.90
44647;DHT22;56315;-33.902;151.160;2023-01-20T03:20:42;25.40;99.90
44647;DHT22;56315;-33.902;151.160;2023-01-20T03:23:09;25.30;99.90
44647;DHT22;56315;-33.902;151.160;2023-01-20T03:25:36;25.30;99.90
44647;DHT22;56315;-33.902;151.160;2023-01-20T03:28:04;25.30;99.90
44647;DHT22;56315;-33.902;151.160;2023-01-20T03:30:32;25.10;99.90
44647;DHT22;56315;-33.902;151.160;2023-01-20T03:32:59;24.80;99.90
44647;DHT22;56315;-33.902;151.160;2023-01-20T03:35:26;24.40;99.90
44647;DHT22;56315;-33.902;151.160;2023-01-20T03:37:53;24.10;99.90
44647;DHT22;56315;-33.902;151.160;2023-01-20T03:40:19;23.70;99.90
44647;DHT22;56315;-33.902;151.160;2023-01-20T03:43:00;23.20;99.90
44647;DHT22;56315;-33.902;151.160;2023-01-20T03:45:35;22.90;99.90
44647;DHT22;56315;-33.902;151.160;2023-01-20T03:48:16;22.80;99.90
44647;DHT22;56315;-33.902;151.160;2023-01-20T03:56:24;22.70;99.90
44647;DHT22;56315;-33.902;151.160;2023-01-20T03:58:54;22.80;99.90
44647;DHT22;56315;-33.902;151.160;2023-01-20T04:01:24;22.80;99.90
44647;DHT22;56315;-33.902;151.160;2023-01-20T04:03:52;22.90;99.90
44647;DHT22;56315;-33.902;151.160;2023-01-20T04:06:20;22.90;99.90
44647;DHT22;56315;-33.902;151.160;2023-01-20T04:08:52;23.00;99.90
44647;DHT22;56315;-33.902;151.160;2023-01-20T04:11:20;23.20;99.90
44647;DHT22;56315;-33.902;151.160;2023-01-20T04:13:48;23.40;99.90
44647;DHT22;56315;-33.902;151.160;2023-01-20T04:16:15;23.60;99.90
44647;DHT22;56315;-33.902;151.160;2023-01-20T04:18:44;23.70;99.90
44647;DHT22;56315;-33.902;151.160;2023-01-20T04:21:22;23.80;99.90
44647;DHT22;56315;-33.902;151.160;2023-01-20T04:24:36;23.70;99.90
44647;DHT22;56315;-33.902;151.160;2023-01-20T04:26:36;23.70;99.90
44647;DHT22;56315;-33.902;151.160;2023-01-20T04:29:03;23.60;99.90
44647;DHT22;56315;-33.902;151.160;2023-01-20T04:31:33;23.40;99.90
44647;DHT22;56315;-33.902;151.160;2023-01-20T04:34:00;23.30;99.90
44647;DHT22;56315;-33.902;151.160;2023-01-20T04:36:27;23.20;99.90
44647;DHT22;56315;-33.902;151.160;2023-01-20T04:38:54;23.20;99.90
44647;DHT22;56315;-33.902;151.160;2023-01-20T04:41:20;23.10;99.90
44647;DHT22;56315;-33.902;151.160;2023-01-20T04:43:47;23.10;99.90
44647;DHT22;56315;-33.902;151.160;2023-01-20T04:46:14;23.10;99.90
44647;DHT22;56315;-33.902;151.160;2023-01-20T04:48:42;23.20;99.90
44647;DHT22;56315;-33.902;151.160;2023-01-20T04:51:09;23.30;99.90
44647;DHT22;56315;-33.902;151.160;2023-01-20T04:53:36;23.50;99.90
44647;DHT22;56315;-33.902;151.160;2023-01-20T04:56:03;23.60;99.90
44647;DHT22;56315;-33.902;151.160;2023-01-20T04:58:29;23.60;99.90
44647;DHT22;56315;-33.902;151.160;2023-01-20T05:00:56;23.70;99.90
44647;DHT22;56315;-33.902;151.160;2023-01-20T05:03:22;23.60;99.90
44647;DHT22;56315;-33.902;151.160;2023-01-20T05:05:52;23.60;99.90
44647;DHT22;56315;-33.902;151.160;2023-01-20T05:08:19;23.60;99.90
44647;DHT22;56315;-33.902;151.160;2023-01-20T05:10:46;23.60;99.90
44647;DHT22;56315;-33.902;151.160;2023-01-20T05:13:12;23.80;99.90
44647;DHT22;56315;-33.902;151.160;2023-01-20T05:15:39;23.90;99.90
44647;DHT22;56315;-33.902;151.160;2023-01-20T05:18:06;24.10;99.90
44647;DHT22;56315;-33.902;151.160;2023-01-20T05:20:32;24.10;99.90
44647;DHT22;56315;-33.902;151.160;2023-01-20T05:22:59;24.20;99.90
44647;DHT22;56315;-33.902;151.160;2023-01-20T05:25:26;24.20;99.90
44647;DHT22;56315;-33.902;151.160;2023-01-20T05:27:52;24.30;99.90
44647;DHT22;56315;-33.902;151.160;2023-01-20T05:30:19;24.20;99.90
44647;DHT22;56315;-33.902;151.160;2023-01-20T05:32:48;24.20;99.90
44647;DHT22;56315;-33.902;151.160;2023-01-20T05:35:15;24.10;99.90
44647;DHT22;56315;-33.902;151.160;2023-01-20T05:37:42;24.00;99.90
44647;DHT22;56315;-33.902;151.160;2023-01-20T05:40:09;23.90;99.90
44647;DHT22;56315;-33.902;151.160;2023-01-20T05:42:36;23.80;99.90
44647;DHT22;56315;-33.902;151.160;2023-01-20T05:45:02;23.70;99.90
44647;DHT22;56315;-33.902;151.160;2023-01-20T05:47:29;23.70;99.90
44647;DHT22;56315;-33.902;151.160;2023-01-20T05:49:56;23.50;99.90
44647;DHT22;56315;-33.902;151.160;2023-01-20T05:52:22;23.50;99.90
44647;DHT22;56315;-33.902;151.160;2023-01-20T05:54:49;23.40;99.90
44647;DHT22;56315;-33.902;151.160;2023-01-20T05:57:15;23.30;99.90
44647;DHT22;56315;-33.902;151.160;2023-01-20T05:59:43;23.20;99.90
44647;DHT22;56315;-33.902;151.160;2023-01-20T06:02:12;23.20;99.90
44647;DHT22;56315;-33.902;151.160;2023-01-20T06:04:44;23.10;99.90
44647;DHT22;56315;-33.902;151.160;2023-01-20T06:07:11;23.00;99.90
44647;DHT22;56315;-33.902;151.160;2023-01-20T06:09:37;22.90;99.90
44647;DHT22;56315;-33.902;151.160;2023-01-20T06:12:04;22.80;99.90
44647;DHT22;56315;-33.902;151.160;2023-01-20T06:14:31;22.60;99.90
44647;DHT22;56315;-33.902;151.160;2023-01-20T06:16:57;22.40;99.90
44647;DHT22;56315;-33.902;151.160;2023-01-20T06:19:24;22.40;99.90
44647;DHT22;56315;-33.902;151.160;2023-01-20T06:21:50;22.30;99.90
44647;DHT22;56315;-33.902;151.160;2023-01-20T06:24:18;22.20;99.90
44647;DHT22;56315;-33.902;151.160;2023-01-20T06:26:45;22.20;99.90
44647;DHT22;56315;-33.902;151.160;2023-01-20T06:29:11;22.20;99.90
44647;DHT22;56315;-33.902;151.160;2023-01-20T06:31:38;22.10;99.90
44647;DHT22;56315;-33.902;151.160;2023-01-20T06:34:04;22.20;99.90
44647;DHT22;56315;-33.902;151.160;2023-01-20T06:36:31;22.20;99.90
44647;DHT22;56315;-33.902;151.160;2023-01-20T06:38:57;22.30;99.90
44647;DHT22;56315;-33.902;151.160;2023-01-20T06:41:24;22.40;99.90
44647;DHT22;56315;-33.902;151.160;2023-01-20T06:43:51;22.40;99.90
44647;DHT22;56315;-33.902;151.160;2023-01-20T06:46:17;22.40;99.90
44647;DHT22;56315;-33.902;151.160;2023-01-20T06:48:44;22.50;99.90
44647;DHT22;56315;-33.902;151.160;2023-01-20T06:51:19;22.60;99.90
44647;DHT22;56315;-33.902;151.160;2023-01-20T06:53:46;22.60;99.90
44647;DHT22;56315;-33.902;151.160;2023-01-20T06:56:13;22.60;99.90
44647;DHT22;56315;-33.902;151.160;2023-01-20T06:58:40;22.60;99.90
44647;DHT22;56315;-33.902;151.160;2023-01-20T07:01:11;22.70;99.90
44647;DHT22;56315;-33.902;151.160;2023-01-20T07:03:40;22.50;99.90
44647;DHT22;56315;-33.902;151.160;2023-01-20T07:08:42;22.30;99.90
44647;DHT22;56315;-33.902;151.160;2023-01-20T07:11:09;22.20;99.90
44647;DHT22;56315;-33.902;151.160;2023-01-20T07:13:36;22.10;99.90
44647;DHT22;56315;-33.902;151.160;2023-01-20T07:16:02;22.00;99.90
44647;DHT22;56315;-33.902;151.160;2023-01-20T07:18:29;21.90;99.90
44647;DHT22;56315;-33.902;151.160;2023-01-20T07:20:56;21.80;99.90
44647;DHT22;56315;-33.902;151.160;2023-01-20T07:23:22;21.80;99.90
44647;DHT22;56315;-33.902;151.160;2023-01-20T07:25:56;21.70;99.90
44647;DHT22;56315;-33.902;151.160;2023-01-20T07:28:23;21.70;99.90
44647;DHT22;56315;-33.902;151.160;2023-01-20T07:30:50;21.80;99.90
44647;DHT22;56315;-33.902;151.160;2023-01-20T07:33:16;21.70;99.90
44647;DHT22;56315;-33.902;151.160;2023-01-20T07:35:43;21.60;99.90
44647;DHT22;56315;-33.902;151.160;2023-01-20T07:38:09;21.50;99.90
44647;DHT22;56315;-33.902;151.160;2023-01-20T07:40:36;21.60;99.90
44647;DHT22;56315;-33.902;151.160;2023-01-20T07:43:02;21.50;99.90
44647;DHT22;56315;-33.902;151.160;2023-01-20T07:45:29;21.50;99.90
44647;DHT22;56315;-33.902;151.160;2023-01-20T07:47:56;21.50;99.90
44647;DHT22;56315;-33.902;151.160;2023-01-20T07:50:22;21.50;99.90
44647;DHT22;56315;-33.902;151.160;2023-01-20T07:52:49;21.50;99.90
44647;DHT22;56315;-33.902;151.160;2023-01-20T07:55:16;21.50;99.90
44647;DHT22;56315;-33.902;151.160;2023-01-20T07:57:42;21.50;99.90
44647;DHT22;56315;-33.902;151.160;2023-01-20T08:00:09;21.50;99.90
44647;DHT22;56315;-33.902;151.160;2023-01-20T08:02:36;21.50;99.90
44647;DHT22;56315;-33.902;151.160;2023-01-20T08:05:03;21.50;99.90
44647;DHT22;56315;-33.902;151.160;2023-01-20T08:07:30;21.50;99.90
44647;DHT22;56315;-33.902;151.160;2023-01-20T08:09:57;21.40;99.90
44647;DHT22;56315;-33.902;151.160;2023-01-20T08:12:24;21.30;99.90
44647;DHT22;56315;-33.902;151.160;2023-01-20T08:14:50;21.30;99.90
44647;DHT22;56315;-33.902;151.160;2023-01-20T08:17:17;21.30;99.90
44647;DHT22;56315;-33.902;151.160;2023-01-20T08:19:43;21.40;99.90
44647;DHT22;56315;-33.902;151.160;2023-01-20T08:22:10;21.30;99.90
44647;DHT22;56315;-33.902;151.160;2023-01-20T08:24:36;21.30;99.90
44647;DHT22;56315;-33.902;151.160;2023-01-20T08:27:03;21.40;99.90
44647;DHT22;56315;-33.902;151.160;2023-01-20T08:29:30;21.30;99.90
44647;DHT22;56315;-33.902;151.160;2023-01-20T08:32:01;21.30;99.90
44647;DHT22;56315;-33.902;151.160;2023-01-20T08:34:27;21.20;99.90
44647;DHT22;56315;-33.902;151.160;2023-01-20T08:36:54;21.20;99.90
44647;DHT22;56315;-33.902;151.160;2023-01-20T08:39:22;21.10;99.90
44647;DHT22;56315;-33.902;151.160;2023-01-20T08:41:49;21.10;99.90
44647;DHT22;56315;-33.902;151.160;2023-01-20T08:44:16;21.10;99.90
44647;DHT22;56315;-33.902;151.160;2023-01-20T08:46:43;21.10;99.90
44647;DHT22;56315;-33.902;151.160;2023-01-20T08:49:11;21.10;99.90
44647;DHT22;56315;-33.902;151.160;2023-01-20T08:51:39;21.10;99.90
44647;DHT22;56315;-33.902;151.160;2023-01-20T08:54:05;21.00;99.90
44647;DHT22;56315;-33.902;151.160;2023-01-20T08:56:32;21.00;99.90
44647;DHT22;56315;-33.902;151.160;2023-01-20T08:59:00;20.90;99.90
44647;DHT22;56315;-33.902;151.160;2023-01-20T09:01:28;20.90;99.90
44647;DHT22;56315;-33.902;151.160;2023-01-20T09:03:55;20.80;99.90
44647;DHT22;56315;-33.902;151.160;2023-01-20T09:06:22;20.80;99.90
44647;DHT22;56315;-33.902;151.160;2023-01-20T09:08:49;20.80;99.90
44647;DHT22;56315;-33.902;151.160;2023-01-20T09:11:17;20.80;99.90
44647;DHT22;56315;-33.902;151.160;2023-01-20T09:13:45;20.80;99.90
44647;DHT22;56315;-33.902;151.160;2023-01-20T09:16:12;20.70;99.90
44647;DHT22;56315;-33.902;151.160;2023-01-20T09:18:39;20.60;99.90
44647;DHT22;56315;-33.902;151.160;2023-01-20T09:21:06;20.60;99.90
44647;DHT22;56315;-33.902;151.160;2023-01-20T09:23:33;20.50;99.90
44647;DHT22;56315;-33.902;151.160;2023-01-20T09:26:00;20.50;99.90
44647;DHT22;56315;-33.902;151.160;2023-01-20T09:28:27;20.50;99.90
44647;DHT22;56315;-33.902;151.160;2023-01-20T09:30:58;20.50;99.90
44647;DHT22;56315;-33.902;151.160;2023-01-20T09:33:25;20.60;99.90
44647;DHT22;56315;-33.902;151.160;2023-01-20T09:35:55;20.50;99.90
44647;DHT22;56315;-33.902;151.160;2023-01-20T09:38:22;20.50;99.90
44647;DHT22;56315;-33.902;151.160;2023-01-20T09:51:58;20.50;99.90
44647;DHT22;56315;-33.902;151.160;2023-01-20T09:54:46;20.50;99.90
44647;DHT22;56315;-33.902;151.160;2023-01-20T09:57:15;20.40;99.90
44647;DHT22;56315;-33.902;151.160;2023-01-20T09:59:48;20.50;99.90
44647;DHT22;56315;-33.902;151.160;2023-01-20T10:02:17;20.50;99.90
44647;DHT22;56315;-33.902;151.160;2023-01-20T10:04:47;20.50;99.90
44647;DHT22;56315;-33.902;151.160;2023-01-20T10:07:21;20.40;99.90
44647;DHT22;56315;-33.902;151.160;2023-01-20T10:09:57;20.40;99.90
44647;DHT22;56315;-33.902;151.160;2023-01-20T10:15:09;20.40;99.90
44647;DHT22;56315;-33.902;151.160;2023-01-20T10:17:38;20.40;99.90
44647;DHT22;56315;-33.902;151.160;2023-01-20T10:25:19;20.40;99.90
44647;DHT22;56315;-33.902;151.160;2023-01-20T10:27:52;20.40;99.90
44647;DHT22;56315;-33.902;151.160;2023-01-20T10:30:19;20.30;99.90
44647;DHT22;56315;-33.902;151.160;2023-01-20T10:32:54;20.20;99.90
44647;DHT22;56315;-33.902;151.160;2023-01-20T10:35:27;20.10;99.90
44647;DHT22;56315;-33.902;151.160;2023-01-20T10:37:54;20.00;99.90
44647;DHT22;56315;-33.902;151.160;2023-01-20T10:42:54;19.90;99.90
44647;DHT22;56315;-33.902;151.160;2023-01-20T10:45:28;19.90;99.90
44647;DHT22;56315;-33.902;151.160;2023-01-20T10:48:06;19.90;99.90
44647;DHT22;56315;-33.902;151.160;2023-01-20T10:53:07;19.90;99.90
44647;DHT22;56315;-33.902;151.160;2023-01-20T10:55:57;19.80;99.90
44647;DHT22;56315;-33.902;151.160;2023-01-20T10:58:26;19.80;99.90
44647;DHT22;56315;-33.902;151.160;2023-01-20T11:00:54;19.80;99.90
44647;DHT22;56315;-33.902;151.160;2023-01-20T11:03:21;19.90;99.90
44647;DHT22;56315;-33.902;151.160;2023-01-20T11:05:49;19.90;99.90
44647;DHT22;56315;-33.902;151.160;2023-01-20T11:08:17;19.90;99.90
44647;DHT22;56315;-33.902;151.160;2023-01-20T11:10:45;19.80;99.90
44647;DHT22;56315;-33.902;151.160;2023-01-20T11:13:12;19.80;99.90
44647;DHT22;56315;-33.902;151.160;2023-01-20T11:18:31;19.70;99.90
44647;DHT22;56315;-33.902;151.160;2023-01-20T11:21:02;19.80;99.90
44647;DHT22;56315;-33.902;151.160;2023-01-20T11:28:47;19.90;99.90
44647;DHT22;56315;-33.902;151.160;2023-01-20T11:31:14;19.90;99.90
44647;DHT22;56315;-33.902;151.160;2023-01-20T11:34:17;19.90;99.90
44647;DHT22;56315;-33.902;151.160;2023-01-20T11:36:44;20.00;99.90
44647;DHT22;56315;-33.902;151.160;2023-01-20T11:39:27;19.90;99.90
44647;DHT22;56315;-33.902;151.160;2023-01-20T11:42:17;19.90;99.90
44647;DHT22;56315;-33.902;151.160;2023-01-20T11:44:45;19.90;99.90
44647;DHT22;56315;-33.902;151.160;2023-01-20T11:47:20;19.80;99.90
44647;DHT22;56315;-33.902;151.160;2023-01-20T11:52:38;19.70;99.90
44647;DHT22;56315;-33.902;151.160;2023-01-20T11:55:08;19.80;99.90
44647;DHT22;56315;-33.902;151.160;2023-01-20T11:57:38;19.80;99.90
44647;DHT22;56315;-33.902;151.160;2023-01-20T12:03:01;19.80;99.90
44647;DHT22;56315;-33.902;151.160;2023-01-20T12:08:04;19.70;99.90
44647;DHT22;56315;-33.902;151.160;2023-01-20T12:10:36;19.60;99.90
44647;DHT22;56315;-33.902;151.160;2023-01-20T12:13:13;19.60;99.90
44647;DHT22;56315;-33.902;151.160;2023-01-20T12:15:43;19.60;99.90
44647;DHT22;56315;-33.902;151.160;2023-01-20T12:18:45;19.40;99.90
44647;DHT22;56315;-33.902;151.160;2023-01-20T12:23:38;19.40;99.90
44647;DHT22;56315;-33.902;151.160;2023-01-20T12:26:13;19.40;99.90
44647;DHT22;56315;-33.902;151.160;2023-01-20T12:31:10;19.40;99.90
44647;DHT22;56315;-33.902;151.160;2023-01-20T12:33:39;19.40;99.90
44647;DHT22;56315;-33.902;151.160;2023-01-20T12:36:10;19.40;99.90
44647;DHT22;56315;-33.902;151.160;2023-01-20T12:41:14;19.40;99.90
44647;DHT22;56315;-33.902;151.160;2023-01-20T12:59:32;19.30;99.90
44647;DHT22;56315;-33.902;151.160;2023-01-20T13:12:28;19.30;99.90
44647;DHT22;56315;-33.902;151.160;2023-01-20T13:20:15;19.30;99.90
44647;DHT22;56315;-33.902;151.160;2023-01-20T13:22:45;19.20;99.90
44647;DHT22;56315;-33.902;151.160;2023-01-20T13:25:12;19.20;99.90
44647;DHT22;56315;-33.902;151.160;2023-01-20T13:27:41;19.20;99.90
44647;DHT22;56315;-33.902;151.160;2023-01-20T13:30:37;19.10;99.90
44647;DHT22;56315;-33.902;151.160;2023-01-20T13:33:04;19.10;99.90
44647;DHT22;56315;-33.902;151.160;2023-01-20T13:37:59;19.10;99.90
44647;DHT22;56315;-33.902;151.160;2023-01-20T13:43:47;19.10;99.90
44647;DHT22;56315;-33.902;151.160;2023-01-20T13:48:31;19.00;99.90
44647;DHT22;56315;-33.902;151.160;2023-01-20T13:51:57;19.10;99.90
44647;DHT22;56315;-33.902;151.160;2023-01-20T13:54:18;19.10;99.90
44647;DHT22;56315;-33.902;151.160;2023-01-20T13:56:40;19.00;99.90
44647;DHT22;56315;-33.902;151.160;2023-01-20T13:59:07;19.00;99.90
44647;DHT22;56315;-33.902;151.160;2023-01-20T14:01:34;19.00;99.90
44647;DHT22;56315;-33.902;151.160;2023-01-20T14:06:28;19.00;99.90
44647;DHT22;56315;-33.902;151.160;2023-01-20T14:08:57;19.10;99.90
44647;DHT22;56315;-33.902;151.160;2023-01-20T14:11:25;19.10;99.90
44647;DHT22;56315;-33.902;151.160;2023-01-20T14:13:53;19.00;99.90
44647;DHT22;56315;-33.902;151.160;2023-01-20T14:18:56;19.00;99.90
44647;DHT22;56315;-33.902;151.160;2023-01-20T14:21:25;18.90;99.90
44647;DHT22;56315;-33.902;151.160;2023-01-20T14:23:52;18.90;99.90
44647;DHT22;56315;-33.902;151.160;2023-01-20T14:26:25;18.90;99.90
44647;DHT22;56315;-33.902;151.160;2023-01-20T14:28:53;18.90;99.90
44647;DHT22;56315;-33.902;151.160;2023-01-20T14:36:29;18.90;99.90
44647;DHT22;56315;-33.902;151.160;2023-01-20T14:38:58;18.90;99.90
44647;DHT22;56315;-33.902;151.160;2023-01-20T14:41:49;18.90;99.90
44647;DHT22;56315;-33.902;151.160;2023-01-20T14:44:19;19.00;99.90
44647;DHT22;56315;-33.902;151.160;2023-01-20T14:46:47;18.90;99.90
44647;DHT22;56315;-33.902;151.160;2023-01-20T14:49:15;18.90;99.90
44647;DHT22;56315;-33.902;151.160;2023-01-20T14:51:43;18.90;99.90
44647;DHT22;56315;-33.902;151.160;2023-01-20T14:56:55;18.80;99.90
44647;DHT22;56315;-33.902;151.160;2023-01-20T14:59:22;18.80;99.90
44647;DHT22;56315;-33.902;151.160;2023-01-20T15:01:50;18.90;99.90
44647;DHT22;56315;-33.902;151.160;2023-01-20T15:04:17;18.90;99.90
44647;DHT22;56315;-33.902;151.160;2023-01-20T15:06:49;18.90;99.90
44647;DHT22;56315;-33.902;151.160;2023-01-20T15:09:27;19.00;99.90
44647;DHT22;56315;-33.902;151.160;2023-01-20T15:14:39;19.00;99.90
44647;DHT22;56315;-33.902;151.160;2023-01-20T15:17:07;19.00;99.90
44647;DHT22;56315;-33.902;151.160;2023-01-20T15:19:34;18.90;99.90
44647;DHT22;56315;-33.902;151.160;2023-01-20T15:22:18;18.90;99.90
44647;DHT22;56315;-33.902;151.160;2023-01-20T15:24:46;18.90;99.90
44647;DHT22;56315;-33.902;151.160;2023-01-20T15:27:27;18.90;99.90
44647;DHT22;56315;-33.902;151.160;2023-01-20T15:30:00;18.90;99.90
44647;DHT22;56315;-33.902;151.160;2023-01-20T15:32:26;18.90;99.90
44647;DHT22;56315;-33.902;151.160;2023-01-20T15:34:53;18.90;99.90
44647;DHT22;56315;-33.902;151.160;2023-01-20T15:37:19;18.90;99.90
44647;DHT22;56315;-33.902;151.160;2023-01-20T15:39:46;18.90;99.90
44647;DHT22;56315;-33.902;151.160;2023-01-20T15:42:13;18.90;99.90
44647;DHT22;56315;-33.902;151.160;2023-01-20T15:44:43;18.90;99.90
44647;DHT22;56315;-33.902;151.160;2023-01-20T15:47:25;18.80;99.90
44647;DHT22;56315;-33.902;151.160;2023-01-20T15:49:58;18.80;99.90
44647;DHT22;56315;-33.902;151.160;2023-01-20T15:52:25;18.80;99.90
44647;DHT22;56315;-33.902;151.160;2023-01-20T15:54:51;18.80;99.90
44647;DHT22;56315;-33.902;151.160;2023-01-20T15:57:18;18.70;99.90
44647;DHT22;56315;-33.902;151.160;2023-01-20T15:59:45;18.70;99.90
44647;DHT22;56315;-33.902;151.160;2023-01-20T16:02:18;18.70;99.90
44647;DHT22;56315;-33.902;151.160;2023-01-20T16:04:45;18.70;99.90
44647;DHT22;56315;-33.902;151.160;2023-01-20T16:07:12;18.60;99.90
44647;DHT22;56315;-33.902;151.160;2023-01-20T16:09:39;18.60;99.90
44647;DHT22;56315;-33.902;151.160;2023-01-20T16:12:09;18.60;99.90
44647;DHT22;56315;-33.902;151.160;2023-01-20T16:14:36;18.60;99.90
44647;DHT22;56315;-33.902;151.160;2023-01-20T16:17:02;18.50;99.90
44647;DHT22;56315;-33.902;151.160;2023-01-20T16:19:29;18.50;99.90
44647;DHT22;56315;-33.902;151.160;2023-01-20T16:21:56;18.40;99.90
44647;DHT22;56315;-33.902;151.160;2023-01-20T16:24:22;18.40;99.90
44647;DHT22;56315;-33.902;151.160;2023-01-20T16:26:49;18.40;99.90
44647;DHT22;56315;-33.902;151.160;2023-01-20T16:29:15;18.40;99.90
44647;DHT22;56315;-33.902;151.160;2023-01-20T16:31:42;18.30;99.90
44647;DHT22;56315;-33.902;151.160;2023-01-20T16:34:08;18.30;99.90
44647;DHT22;56315;-33.902;151.160;2023-01-20T16:36:35;18.40;99.90
44647;DHT22;56315;-33.902;151.160;2023-01-20T16:39:02;18.40;99.90
44647;DHT22;56315;-33.902;151.160;2023-01-20T16:41:29;18.40;99.90
44647;DHT22;56315;-33.902;151.160;2023-01-20T16:44:04;18.50;99.90
44647;DHT22;56315;-33.902;151.160;2023-01-20T16:46:31;18.50;99.90
44647;DHT22;56315;-33.902;151.160;2023-01-20T16:48:58;18.50;99.90
44647;DHT22;56315;-33.902;151.160;2023-01-20T16:51:28;18.60;99.90
44647;DHT22;56315;-33.902;151.160;2023-01-20T16:53:55;18.50;99.90
44647;DHT22;56315;-33.902;151.160;2023-01-20T16:56:31;18.60;99.90
44647;DHT22;56315;-33.902;151.160;2023-01-20T16:58:59;18.50;99.90
44647;DHT22;56315;-33.902;151.160;2023-01-20T17:01:26;18.50;99.90
44647;DHT22;56315;-33.902;151.160;2023-01-20T17:03:56;18.50;99.90
44647;DHT22;56315;-33.902;151.160;2023-01-20T17:06:27;18.60;99.90
44647;DHT22;56315;-33.902;151.160;2023-01-20T17:08:57;18.60;99.90
44647;DHT22;56315;-33.902;151.160;2023-01-20T17:11:25;18.60;99.90
44647;DHT22;56315;-33.902;151.160;2023-01-20T17:13:52;18.60;99.90
44647;DHT22;56315;-33.902;151.160;2023-01-20T17:16:19;18.60;99.90